createdAt,value
2023-02-06T00:00:38.298Z,103819.72
2023-02-06T00:03:05.450Z,103819.72
2023-02-06T00:05:32.202Z,103825.00
2023-02-06T00:07:58.615Z,103828.44
2023-02-06T00:10:24.967Z,103829.22
2023-02-06T00:12:51.321Z,103815.94
2023-02-06T00:15:18.077Z,103813.28
2023-02-06T00:17:44.455Z,103808.00
2023-02-06T00:20:11.727Z,103803.53
2023-02-06T00:22:38.397Z,103802.66
2023-02-06T00:25:05.324Z,103806.13
2023-02-06T00:27:31.838Z,103805.13
2023-02-06T00:29:58.574Z,103802.47
2023-02-06T00:32:25.000Z,103812.94
2023-02-06T00:34:51.328Z,103802.34
2023-02-06T00:37:17.909Z,103815.41
2023-02-06T00:39:44.271Z,103810.06
2023-02-06T00:42:10.800Z,103805.53
2023-02-06T00:44:37.930Z,103806.31
2023-02-06T00:47:04.266Z,103803.63
2023-02-06T00:49:30.598Z,103802.72
2023-02-06T00:51:56.902Z,103791.25
2023-02-06T00:54:23.217Z,103786.63
2023-02-06T00:56:49.555Z,103786.53
2023-02-06T00:59:16.032Z,103785.47
2023-02-06T01:01:42.445Z,103785.41
2023-02-06T01:04:08.857Z,103787.09
2023-02-06T01:06:37.558Z,103784.47
2023-02-06T01:09:04.344Z,103790.56
2023-02-06T01:11:30.714Z,103789.66
2023-02-06T01:13:57.617Z,103794.03
2023-02-06T01:16:24.771Z,103803.53
2023-02-06T01:18:52.982Z,103811.44
2023-02-06T01:21:23.243Z,103808.69
2023-02-06T01:23:52.458Z,103817.53
2023-02-06T01:26:21.316Z,103817.38
2023-02-06T01:28:48.998Z,103819.81
2023-02-06T01:31:23.870Z,103809.94
2023-02-06T01:33:51.540Z,103811.81
2023-02-06T01:36:19.396Z,103818.84
2023-02-06T01:38:46.539Z,103804.69
2023-02-06T01:41:13.658Z,103807.16
2023-02-06T01:43:45.815Z,103805.31
2023-02-06T01:46:12.592Z,103801.63
2023-02-06T01:48:49.622Z,103805.25
2023-02-06T01:51:23.621Z,103809.59
2023-02-06T01:53:55.817Z,103800.88
2023-02-06T01:56:22.346Z,103797.28
2023-02-06T01:58:53.409Z,103812.06
2023-02-06T02:01:20.955Z,103812.94
2023-02-06T02:03:50.291Z,103806.69
2023-02-06T02:06:20.662Z,103811.19
2023-02-06T02:08:49.822Z,103804.94
2023-02-06T02:11:26.850Z,103803.16
2023-02-06T02:13:54.493Z,103796.97
2023-02-06T02:16:49.728Z,103789.97
2023-02-06T02:19:53.707Z,103793.53
2023-02-06T02:22:32.668Z,103803.00
2023-02-06T02:25:17.925Z,103791.59
2023-02-06T02:28:02.931Z,103789.69
2023-02-06T02:30:59.666Z,103797.63
2023-02-06T02:33:30.423Z,103789.84
2023-02-06T02:36:08.399Z,103793.53
2023-02-06T02:38:39.761Z,103801.38
2023-02-06T02:41:21.946Z,103800.47
2023-02-06T02:44:01.237Z,103799.59
2023-02-06T02:46:44.744Z,103794.34
2023-02-06T02:49:15.235Z,103794.22
2023-02-06T02:51:42.687Z,103790.72
2023-02-06T02:54:09.628Z,103787.16
2023-02-06T02:56:37.508Z,103779.03
2023-02-06T02:59:13.166Z,103781.56
2023-02-06T03:01:48.321Z,103780.56
2023-02-06T03:04:20.927Z,103782.25
2023-02-06T03:06:59.539Z,103777.78
2023-02-06T03:09:45.650Z,103777.63
2023-02-06T03:12:22.840Z,103780.00
2023-02-06T03:14:58.138Z,103779.13
2023-02-06T03:17:35.786Z,103787.00
2023-02-06T03:20:05.610Z,103785.22
2023-02-06T03:22:33.390Z,103778.19
2023-02-06T03:25:02.752Z,103774.69
2023-02-06T03:27:30.987Z,103775.50
2023-02-06T03:29:58.948Z,103774.63
2023-02-06T03:32:29.662Z,103771.03
2023-02-06T03:35:16.132Z,103779.72
2023-02-06T03:37:42.955Z,103780.53
2023-02-06T03:40:10.911Z,103786.56
2023-02-06T03:42:45.458Z,103783.03
2023-02-06T03:45:16.828Z,103789.13
2023-02-06T03:47:46.490Z,103792.63
2023-02-06T03:50:15.214Z,103792.56
2023-02-06T03:52:46.987Z,103788.06
2023-02-06T03:55:17.980Z,103793.25
2023-02-06T03:57:50.164Z,103786.19
2023-02-06T04:00:16.992Z,103792.25
2023-02-06T04:02:47.310Z,103793.00
2023-02-06T04:05:16.319Z,103803.72
2023-02-06T04:07:42.830Z,103802.59
2023-02-06T04:10:09.458Z,103803.47
2023-02-06T04:12:36.100Z,103790.19
2023-02-06T04:15:02.843Z,103780.53
2023-02-06T04:17:46.434Z,103783.94
2023-02-06T04:20:15.674Z,103779.53
2023-02-06T04:22:42.470Z,103787.44
2023-02-06T04:25:08.858Z,103790.06
2023-02-06T04:27:36.795Z,103789.94
2023-02-06T04:30:04.568Z,103787.44
2023-02-06T04:32:30.901Z,103787.50
2023-02-06T04:34:57.279Z,103799.75
2023-02-06T04:37:23.716Z,103797.09
2023-02-06T04:39:50.042Z,103807.66
2023-02-06T04:42:16.360Z,103814.78
2023-02-06T04:44:42.733Z,103830.50
2023-02-06T04:47:09.082Z,103830.50
2023-02-06T04:49:35.428Z,103819.91
2023-02-06T04:52:01.769Z,103818.16
2023-02-06T04:54:28.168Z,103825.13
2023-02-06T04:56:54.601Z,103826.88
2023-02-06T04:59:20.954Z,103819.94
2023-02-06T05:01:48.071Z,103821.75
2023-02-06T05:04:14.459Z,103824.38
2023-02-06T05:06:40.791Z,103827.94
2023-02-06T05:09:07.177Z,103832.38
2023-02-06T05:11:33.792Z,103834.19
2023-02-06T05:14:00.140Z,103824.81
2023-02-06T05:16:26.723Z,103806.09
2023-02-06T05:18:55.293Z,103804.34
2023-02-06T05:21:22.896Z,103808.66
2023-02-06T05:23:49.354Z,103810.41
2023-02-06T05:26:16.044Z,103803.31
2023-02-06T05:28:42.435Z,103802.41
2023-02-06T05:31:09.122Z,103797.06
2023-02-06T05:33:35.549Z,103794.31
2023-02-06T05:36:07.180Z,103787.31
2023-02-06T05:38:33.931Z,103788.25
2023-02-06T05:41:00.682Z,103778.03
2023-02-06T05:43:27.062Z,103785.25
2023-02-06T05:45:53.528Z,103787.09
2023-02-06T05:48:19.950Z,103782.88
2023-02-06T05:50:49.429Z,103794.19
2023-02-06T05:53:17.168Z,103790.44
2023-02-06T05:55:43.538Z,103785.13
2023-02-06T05:58:11.378Z,103787.63
2023-02-06T06:00:37.865Z,103779.78
2023-02-06T06:03:04.309Z,103778.28
2023-02-06T06:05:30.631Z,103780.16
2023-02-06T06:07:56.960Z,103785.53
2023-02-06T06:10:23.353Z,103784.72
2023-02-06T06:12:49.753Z,103787.53
2023-02-06T06:15:16.210Z,103795.50
2023-02-06T06:17:42.534Z,103775.50
2023-02-06T06:20:09.323Z,103775.50
2023-02-06T06:22:35.688Z,103773.63
2023-02-06T06:25:02.111Z,103771.03
2023-02-06T06:27:28.439Z,103774.69
2023-02-06T06:29:54.799Z,103776.38
2023-02-06T06:32:21.792Z,103779.94
2023-02-06T06:34:48.114Z,103788.72
2023-02-06T06:37:14.502Z,103782.59
2023-02-06T06:39:40.953Z,103773.84
2023-02-06T06:42:08.068Z,103773.88
2023-02-06T06:44:34.396Z,103772.28
2023-02-06T06:47:00.809Z,103768.72
2023-02-06T06:49:28.980Z,103769.66
2023-02-06T06:51:55.419Z,103771.41
2023-02-06T06:54:22.706Z,103770.66
2023-02-06T06:56:49.048Z,103774.97
2023-02-06T06:59:15.408Z,103759.13
2023-02-06T07:01:41.763Z,103773.22
2023-02-06T07:04:08.229Z,103773.25
2023-02-06T07:06:34.606Z,103776.06
2023-02-06T07:09:00.951Z,103776.13
2023-02-06T07:11:27.578Z,103776.19
2023-02-06T07:13:53.879Z,103779.81
2023-02-06T07:16:20.284Z,103778.13
2023-02-06T07:18:47.283Z,103773.75
2023-02-06T07:21:15.776Z,103765.94
2023-02-06T07:23:42.338Z,103764.22
2023-02-06T07:26:08.773Z,103762.53
2023-02-06T07:28:35.140Z,103767.03
2023-02-06T07:31:02.563Z,103770.63
2023-02-06T07:33:28.979Z,103777.72
2023-02-06T07:35:55.403Z,103784.69
2023-02-06T07:38:21.986Z,103777.72
2023-02-06T07:40:48.316Z,103779.50
2023-02-06T07:43:14.735Z,103777.81
2023-02-06T07:45:41.463Z,103776.00
2023-02-06T07:48:08.117Z,103772.53
2023-02-06T07:50:35.115Z,103776.06
2023-02-06T07:53:02.355Z,103774.34
2023-02-06T07:55:29.576Z,103780.50
2023-02-06T07:57:56.246Z,103781.59
2023-02-06T08:00:22.683Z,103777.25
2023-02-06T08:02:49.017Z,103782.34
2023-02-06T08:05:15.355Z,103779.78
2023-02-06T08:07:41.717Z,103771.06
2023-02-06T08:10:08.583Z,103768.50
2023-02-06T08:12:34.905Z,103786.06
2023-02-06T08:15:01.310Z,103772.97
2023-02-06T08:17:28.041Z,103780.91
2023-02-06T08:19:54.424Z,103787.16
2023-02-06T08:22:20.879Z,103784.63
2023-02-06T08:24:47.578Z,103775.06
2023-02-06T08:27:13.928Z,103770.72
2023-02-06T08:29:42.446Z,103764.66
2023-02-06T08:32:09.888Z,103774.44
2023-02-06T08:34:38.001Z,103767.47
2023-02-06T08:37:04.438Z,103762.22
2023-02-06T08:39:30.834Z,103758.78
2023-02-06T08:41:57.179Z,103752.63
2023-02-06T08:44:23.570Z,103770.13
2023-02-06T08:46:56.186Z,103761.47
2023-02-06T08:49:26.919Z,103768.31
2023-02-06T08:51:54.735Z,103772.75
2023-02-06T08:54:23.275Z,103774.56
2023-02-06T08:56:51.412Z,103768.56
2023-02-06T08:59:19.427Z,103774.56
2023-02-06T09:01:46.559Z,103770.25
2023-02-06T09:04:14.015Z,103772.09
2023-02-06T09:06:42.972Z,103771.22
2023-02-06T09:09:11.103Z,103764.34
2023-02-06T09:11:38.663Z,103766.84
2023-02-06T09:14:07.295Z,103770.31
2023-02-06T09:16:34.757Z,103772.91
2023-02-06T09:19:02.227Z,103778.31
2023-02-06T09:21:30.917Z,103777.25
2023-02-06T09:24:01.557Z,103775.56
2023-02-06T09:26:30.769Z,103780.13
2023-02-06T09:29:02.912Z,103789.75
2023-02-06T09:31:30.641Z,103782.78
2023-02-06T09:33:57.888Z,103788.91
2023-02-06T09:36:24.306Z,103806.53
2023-02-06T09:38:57.121Z,103810.19
2023-02-06T09:41:26.499Z,103807.72
2023-02-06T09:43:57.792Z,103792.69
2023-02-06T09:46:28.963Z,103795.50
2023-02-06T09:48:58.523Z,103792.19
2023-02-06T09:51:48.101Z,103792.34
2023-02-06T09:54:39.112Z,103796.97
2023-02-06T09:57:12.906Z,103791.81
2023-02-06T09:59:44.914Z,103785.75
2023-02-06T10:02:47.616Z,103790.28
2023-02-06T10:05:25.004Z,103789.53
2023-02-06T10:08:23.857Z,103786.13
2023-02-06T10:10:54.828Z,103793.25
2023-02-06T10:13:38.589Z,103788.84
2023-02-06T10:16:19.508Z,103791.50
2023-02-06T10:18:49.962Z,103791.59
2023-02-06T10:21:51.914Z,103790.88
2023-02-06T10:24:24.371Z,103778.66
2023-02-06T10:26:53.482Z,103781.38
2023-02-06T10:29:29.167Z,103783.25
2023-02-06T10:32:34.220Z,103772.81
2023-02-06T10:35:10.386Z,103775.50
2023-02-06T10:37:58.943Z,103771.13
2023-02-06T10:40:43.041Z,103774.63
2023-02-06T10:43:54.245Z,103775.59
2023-02-06T10:46:40.052Z,103775.66
2023-02-06T10:49:25.566Z,103770.44
2023-02-06T10:51:58.293Z,103757.34
2023-02-06T10:54:31.585Z,103766.16
2023-02-06T10:57:00.536Z,103759.81
2023-02-06T10:59:34.264Z,103752.75
2023-02-06T11:02:17.365Z,103756.28
2023-02-06T11:05:03.393Z,103729.00
2023-02-06T11:07:36.490Z,103726.47
2023-02-06T11:10:06.994Z,103730.03
2023-02-06T11:12:40.816Z,103724.81
2023-02-06T11:15:32.542Z,103735.44
2023-02-06T11:18:01.160Z,103729.38
2023-02-06T11:20:31.843Z,103733.03
2023-02-06T11:23:26.978Z,103721.69
2023-02-06T11:25:58.853Z,103719.97
2023-02-06T11:28:26.451Z,103729.69
2023-02-06T11:31:02.458Z,103722.69
2023-02-06T11:33:47.318Z,103720.97
2023-02-06T11:36:25.568Z,103718.41
2023-02-06T11:38:56.086Z,103703.44
2023-02-06T11:41:22.552Z,103709.66
2023-02-06T11:43:50.742Z,103715.03
2023-02-06T11:46:27.855Z,103715.94
2023-02-06T11:48:54.180Z,103719.44
2023-02-06T11:51:21.571Z,103711.53
2023-02-06T11:54:02.552Z,103715.09
2023-02-06T11:56:30.627Z,103716.91
2023-02-06T11:59:19.324Z,103709.91
2023-02-06T12:01:47.497Z,103714.34
2023-02-06T12:04:42.571Z,103709.03
2023-02-06T12:07:36.819Z,103708.19
2023-02-06T12:10:13.389Z,103710.84
2023-02-06T12:12:45.605Z,103704.69
2023-02-06T12:15:44.815Z,103706.47
2023-02-06T12:18:20.552Z,103717.97
2023-02-06T12:20:50.992Z,103724.16
2023-02-06T12:23:28.499Z,103720.69
2023-02-06T12:25:59.518Z,103718.91
2023-02-06T12:28:36.883Z,103723.31
2023-02-06T12:31:10.996Z,103714.47
2023-02-06T12:33:44.104Z,103700.34
2023-02-06T12:36:20.750Z,103703.88
2023-02-06T12:39:16.641Z,103705.66
2023-02-06T12:42:09.386Z,103703.91
2023-02-06T12:44:47.808Z,103695.94
2023-02-06T12:47:29.223Z,103680.03
2023-02-06T12:50:16.121Z,103670.31
2023-02-06T12:52:51.516Z,103666.78
2023-02-06T12:55:22.553Z,103672.06
2023-02-06T12:57:49.601Z,103660.56
2023-02-06T13:00:34.331Z,103659.69
2023-02-06T13:03:06.701Z,103655.28
2023-02-06T13:05:42.995Z,103641.13
2023-02-06T13:08:14.580Z,103646.44
2023-02-06T13:10:42.418Z,103650.84
2023-02-06T13:13:27.154Z,103648.19
2023-02-06T13:15:55.247Z,103655.28
2023-02-06T13:18:50.669Z,103656.16
2023-02-06T13:21:19.569Z,103656.13
2023-02-06T13:24:19.080Z,103657.91
2023-02-06T13:26:51.297Z,103653.50
2023-02-06T13:29:25.747Z,103653.50
2023-02-06T13:32:10.811Z,103649.03
2023-02-06T13:34:43.117Z,103639.31
2023-02-06T13:37:19.844Z,103648.16
2023-02-06T13:39:47.705Z,103632.22
2023-02-06T13:42:46.364Z,103621.56
2023-02-06T13:45:35.912Z,103627.75
2023-02-06T13:48:05.556Z,103632.16
2023-02-06T13:50:57.286Z,103636.59
2023-02-06T13:53:26.470Z,103634.81
2023-02-06T13:56:22.031Z,103639.25
2023-02-06T13:58:51.561Z,103638.31
2023-02-06T14:01:25.943Z,103636.53
2023-02-06T14:03:54.067Z,103635.66
2023-02-06T14:06:32.034Z,103625.88
2023-02-06T14:09:10.500Z,103625.91
2023-02-06T14:12:14.954Z,103630.31
2023-02-06T14:14:51.182Z,103627.66
2023-02-06T14:17:46.321Z,103625.88
2023-02-06T14:20:42.337Z,103625.84
2023-02-06T14:23:14.567Z,103623.19
2023-02-06T14:25:59.159Z,103629.34
2023-02-06T14:28:50.821Z,103624.13
2023-02-06T14:31:37.465Z,103619.66
2023-02-06T14:34:18.113Z,103614.34
2023-02-06T14:37:02.765Z,103617.03
2023-02-06T14:39:42.469Z,103619.69
2023-02-06T14:42:18.426Z,103620.63
2023-02-06T14:44:50.414Z,103621.50
2023-02-06T14:47:22.366Z,103621.47
2023-02-06T14:49:49.356Z,103619.72
2023-02-06T14:52:21.416Z,103623.28
2023-02-06T14:54:47.844Z,103625.94
2023-02-06T14:57:19.793Z,103625.94
2023-02-06T15:00:13.605Z,103633.94
2023-02-06T15:02:40.122Z,103641.88
2023-02-06T15:05:06.579Z,103638.34
2023-02-06T15:07:38.710Z,103635.69
2023-02-06T15:10:15.951Z,103641.91
2023-02-06T15:12:51.244Z,103652.53
2023-02-06T15:15:24.039Z,103639.22
2023-02-06T15:18:01.412Z,103637.47
2023-02-06T15:20:40.125Z,103633.03
2023-02-06T15:23:18.055Z,103623.28
2023-02-06T15:25:59.340Z,103622.41
2023-02-06T15:28:29.033Z,103619.75
2023-02-06T15:30:59.080Z,103612.66
2023-02-06T15:33:28.518Z,103608.25
2023-02-06T15:35:57.673Z,103611.75
2023-02-06T15:38:26.355Z,103614.41
2023-02-06T15:40:57.812Z,103605.56
2023-02-06T15:43:25.709Z,103607.34
2023-02-06T15:45:55.940Z,103601.13
2023-02-06T15:48:36.798Z,103603.78
2023-02-06T15:51:18.409Z,103604.69
2023-02-06T15:53:48.229Z,103602.03
2023-02-06T15:56:29.020Z,103601.13
2023-02-06T15:58:58.674Z,103595.84
2023-02-06T16:01:26.472Z,103598.53
2023-02-06T16:03:59.277Z,103592.34
2023-02-06T16:06:25.722Z,103610.03
2023-02-06T16:08:56.182Z,103602.94
2023-02-06T16:11:50.744Z,103602.06
2023-02-06T16:14:21.547Z,103601.22
2023-02-06T16:17:01.393Z,103600.34
2023-02-06T16:19:46.794Z,103604.81
2023-02-06T16:22:21.782Z,103595.94
2023-02-06T16:24:49.737Z,103598.59
2023-02-06T16:27:21.692Z,103599.50
2023-02-06T16:29:52.464Z,103586.22
2023-02-06T16:32:29.762Z,103578.28
2023-02-06T16:34:56.348Z,103574.75
2023-02-06T16:37:27.000Z,103573.84
2023-02-06T16:39:54.167Z,103586.25
2023-02-06T16:42:23.568Z,103574.75
2023-02-06T16:44:58.038Z,103580.06
2023-02-06T16:47:24.684Z,103575.66
2023-02-06T16:49:51.962Z,103575.66
2023-02-06T16:52:23.732Z,103576.56
2023-02-06T16:54:50.435Z,103580.06
2023-02-06T16:57:38.976Z,103576.53
2023-02-06T17:00:09.415Z,103580.06
2023-02-06T17:02:35.818Z,103573.00
2023-02-06T17:05:06.808Z,103580.94
2023-02-06T17:07:34.889Z,103589.78
2023-02-06T17:10:01.845Z,103581.81
2023-02-06T17:12:28.691Z,103589.75
2023-02-06T17:14:55.152Z,103591.53
2023-02-06T17:17:23.003Z,103598.56
2023-02-06T17:19:51.764Z,103599.47
2023-02-06T17:22:18.397Z,103597.72
2023-02-06T17:24:44.772Z,103594.16
2023-02-06T17:27:15.329Z,103594.16
2023-02-06T17:29:41.761Z,103584.44
2023-02-06T17:32:09.141Z,103582.66
2023-02-06T17:34:37.261Z,103585.31
2023-02-06T17:37:04.961Z,103586.19
2023-02-06T17:39:31.320Z,103587.06
2023-02-06T17:41:57.751Z,103596.78
2023-02-06T17:44:24.291Z,103599.44
2023-02-06T17:46:50.644Z,103599.44
2023-02-06T17:49:17.356Z,103596.78
2023-02-06T17:51:44.828Z,103601.19
2023-02-06T17:54:12.319Z,103596.72
2023-02-06T17:56:39.049Z,103602.91
2023-02-06T17:59:05.505Z,103595.81
2023-02-06T18:01:31.934Z,103586.97
2023-02-06T18:04:00.670Z,103591.38
2023-02-06T18:06:31.085Z,103597.53
2023-02-06T18:08:57.432Z,103593.09
2023-02-06T18:11:23.793Z,103594.81
2023-02-06T18:13:50.651Z,103592.09
2023-02-06T18:16:23.050Z,103596.50
2023-02-06T18:18:50.128Z,103592.03
2023-02-06T18:21:19.415Z,103593.72
2023-02-06T18:23:47.030Z,103590.19
2023-02-06T18:26:14.176Z,103576.91
2023-02-06T18:28:40.858Z,103591.00
2023-02-06T18:31:21.590Z,103588.31
2023-02-06T18:33:48.048Z,103587.44
2023-02-06T18:36:14.521Z,103588.31
2023-02-06T18:38:41.399Z,103591.84
2023-02-06T18:41:27.791Z,103585.66
2023-02-06T18:43:54.190Z,103590.94
2023-02-06T18:46:20.795Z,103597.09
2023-02-06T18:48:47.369Z,103595.34
2023-02-06T18:51:13.736Z,103599.75
2023-02-06T18:53:40.095Z,103594.44
2023-02-06T18:56:06.714Z,103596.19
2023-02-06T18:58:33.397Z,103613.84
2023-02-06T19:00:59.793Z,103605.91
2023-02-06T19:03:26.163Z,103595.31
2023-02-06T19:05:52.532Z,103595.31
2023-02-06T19:08:19.572Z,103605.06
2023-02-06T19:10:45.946Z,103596.19
2023-02-06T19:13:12.341Z,103589.13
2023-02-06T19:15:38.799Z,103599.69
2023-02-06T19:18:05.987Z,103594.34
2023-02-06T19:20:32.311Z,103602.22
2023-02-06T19:22:58.672Z,103600.50
2023-02-06T19:25:25.076Z,103604.84
2023-02-06T19:27:51.480Z,103600.44
2023-02-06T19:30:18.001Z,103603.94
2023-02-06T19:32:44.436Z,103601.31
2023-02-06T19:35:11.892Z,103597.69
2023-02-06T19:37:38.243Z,103599.41
2023-02-06T19:40:04.868Z,103605.47
2023-02-06T19:42:31.246Z,103600.09
2023-02-06T19:44:57.606Z,103605.34
2023-02-06T19:47:24.056Z,103601.75
2023-02-06T19:49:52.283Z,103606.97
2023-02-06T19:52:19.173Z,103602.53
2023-02-06T19:54:47.597Z,103602.56
2023-02-06T19:57:14.796Z,103601.72
2023-02-06T19:59:42.043Z,103605.22
2023-02-06T20:02:14.279Z,103604.38
2023-02-06T20:04:41.358Z,103592.91
2023-02-06T20:07:07.726Z,103603.50
2023-02-06T20:09:34.725Z,103612.31
2023-02-06T20:12:01.075Z,103611.34
2023-02-06T20:14:28.030Z,103614.78
2023-02-06T20:16:54.940Z,103615.53
2023-02-06T20:19:24.676Z,103618.91
2023-02-06T20:21:54.116Z,103613.53
2023-02-06T20:24:24.564Z,103622.34
2023-02-06T20:26:55.940Z,103616.22
2023-02-06T20:29:28.837Z,103614.53
2023-02-06T20:31:56.241Z,103620.72
2023-02-06T20:34:24.313Z,103618.97
2023-02-06T20:36:51.482Z,103626.03
2023-02-06T20:39:21.381Z,103633.09
2023-02-06T20:41:49.509Z,103634.78
2023-02-06T20:44:16.567Z,103639.13
2023-02-06T20:46:43.548Z,103636.47
2023-02-06T20:49:16.228Z,103631.06
2023-02-06T20:51:42.949Z,103642.41
2023-02-06T20:54:11.654Z,103634.34
2023-02-06T20:56:39.609Z,103640.47
2023-02-06T20:59:06.798Z,103639.47
2023-02-06T21:01:33.659Z,103637.69
2023-02-06T21:04:05.785Z,103633.22
2023-02-06T21:06:34.316Z,103628.75
2023-02-06T21:09:01.516Z,103623.41
2023-02-06T21:11:30.446Z,103610.25
2023-02-06T21:14:02.516Z,103612.00
2023-02-06T21:16:30.455Z,103616.44
2023-02-06T21:18:58.538Z,103613.84
2023-02-06T21:21:32.735Z,103612.97
2023-02-06T21:23:59.384Z,103625.34
2023-02-06T21:26:26.928Z,103614.81
2023-02-06T21:28:53.586Z,103613.97
2023-02-06T21:31:23.566Z,103616.75
2023-02-06T21:33:51.692Z,103610.47
2023-02-06T21:36:18.791Z,103614.00
2023-02-06T21:38:45.137Z,103608.63
2023-02-06T21:41:14.893Z,103611.22
2023-02-06T21:43:41.934Z,103602.34
2023-02-06T21:46:10.018Z,103603.00
2023-02-06T21:48:36.853Z,103608.06
2023-02-06T21:51:22.936Z,103607.09
2023-02-06T21:53:49.447Z,103618.13
2023-02-06T21:56:19.740Z,103620.66
2023-02-06T21:58:47.295Z,103617.25
2023-02-06T22:01:22.314Z,103611.16
2023-02-06T22:03:49.641Z,103611.16
2023-02-06T22:06:16.609Z,103607.66
2023-02-06T22:08:45.210Z,103612.09
2023-02-06T22:11:28.304Z,103605.13
2023-02-06T22:14:03.662Z,103609.38
2023-02-06T22:16:30.726Z,103596.22
2023-02-06T22:18:57.441Z,103598.00
2023-02-06T22:21:26.371Z,103584.81
2023-02-06T22:23:56.441Z,103590.34
2023-02-06T22:26:22.943Z,103586.78
2023-02-06T22:28:49.342Z,103585.81
2023-02-06T22:31:17.451Z,103589.25
2023-02-06T22:33:44.553Z,103583.94
2023-02-06T22:36:13.957Z,103591.00
2023-02-06T22:38:41.610Z,103594.50
2023-02-06T22:41:11.007Z,103597.03
2023-02-06T22:43:38.939Z,103597.13
2023-02-06T22:46:06.645Z,103596.34
2023-02-06T22:48:33.566Z,103595.47
2023-02-06T22:51:07.579Z,103605.91
2023-02-06T22:53:34.495Z,103604.06
2023-02-06T22:56:22.332Z,103609.28
2023-02-06T22:58:49.563Z,103608.19
2023-02-06T23:01:17.768Z,103603.88
2023-02-06T23:03:44.222Z,103606.50
2023-02-06T23:06:13.364Z,103605.50
2023-02-06T23:08:40.914Z,103604.53
2023-02-06T23:11:08.626Z,103598.44
2023-02-06T23:13:35.679Z,103600.16
2023-02-06T23:16:02.644Z,103596.63
2023-02-06T23:18:29.531Z,103591.31
2023-02-06T23:21:05.026Z,103589.44
2023-02-06T23:23:31.430Z,103585.94
2023-02-06T23:25:57.891Z,103583.34
2023-02-06T23:28:25.304Z,103570.81
2023-02-06T23:30:52.697Z,103576.00
2023-02-06T23:33:19.910Z,103579.44
2023-02-06T23:35:46.556Z,103592.66
2023-02-06T23:38:13.168Z,103588.28
2023-02-06T23:40:39.805Z,103584.69
2023-02-06T23:43:06.540Z,103578.59
2023-02-06T23:45:33.817Z,103589.88
2023-02-06T23:48:00.207Z,103590.47
2023-02-06T23:50:27.049Z,103594.88
2023-02-06T23:52:53.572Z,103587.00
2023-02-06T23:55:21.291Z,103587.75
2023-02-06T23:57:47.666Z,103587.59
